Time;durP1;ratioP1;P1;durP2;ratioP2;P2;SDS_P1;SDS_P2;PMS_P1;PMS_P2;Temp;Humidity;BMP_temperature;BMP_pressure;BME280_temperature;BME280_humidity;BME280_pressure;Samples;Min_cycle;Max_cycle;Signal;HPM_P1;HPM_P2
2021/12/02 00:02:16;;;;;;;0.87;0.73;;;;;;;5.44;100.00;92959.03;5029790;28;20215;-73
2021/12/02 00:04:43;;;;;;;0.83;0.50;;;;;;;5.48;100.00;92968.44;5039725;28;20195;-73
2021/12/02 00:07:09;;;;;;;1.23;0.70;;;;;;;5.45;100.00;92947.00;5027268;28;20187;-72
2021/12/02 00:09:37;;;;;;;0.70;0.70;;;;;;;5.42;100.00;92937.88;5030185;28;20750;-72
2021/12/02 00:12:04;;;;;;;0.60;0.60;;;;;;;5.35;100.00;92943.69;5030374;28;20684;-73
2021/12/02 00:14:38;;;;;;;1.20;0.87;;;;;;;5.39;100.00;92946.19;5036405;28;20213;-72
2021/12/02 00:17:08;;;;;;;1.70;0.60;;;;;;;5.26;100.00;92930.25;5026922;28;20237;-73
2021/12/02 00:22:21;;;;;;;0.40;0.40;;;;;;;5.22;100.00;92926.25;5030932;28;20229;-73
2021/12/02 00:24:53;;;;;;;0.80;0.80;;;;;;;5.31;100.00;92939.69;5014166;28;20654;-72
2021/12/02 00:27:19;;;;;;;0.93;0.60;;;;;;;5.29;100.00;92953.69;5032110;28;20225;-73
2021/12/02 00:29:46;;;;;;;0.50;0.50;;;;;;;5.21;100.00;92955.28;4978763;28;20212;-72
2021/12/02 00:32:13;;;;;;;1.63;0.70;;;;;;;5.23;100.00;92933.16;5013325;28;20221;-73
2021/12/02 00:34:44;;;;;;;0.50;0.50;;;;;;;5.13;100.00;92945.31;5030253;28;20254;-72
2021/12/02 00:37:10;;;;;;;0.60;0.60;;;;;;;5.16;100.00;92957.91;5030857;28;20198;-73
2021/12/02 00:39:37;;;;;;;0.50;0.50;;;;;;;5.12;100.00;92944.56;5028906;28;20202;-72
2021/12/02 00:42:03;;;;;;;0.60;0.50;;;;;;;5.15;100.00;92949.03;5027793;28;20246;-72
2021/12/02 00:44:31;;;;;;;0.60;0.50;;;;;;;4.95;100.00;92955.13;5009607;28;20194;-73
2021/12/02 00:46:57;;;;;;;1.20;0.60;;;;;;;5.01;100.00;92954.47;5013202;28;20214;-73
2021/12/02 00:49:23;;;;;;;0.50;0.50;;;;;;;5.00;100.00;92956.44;5039551;28;20300;-72
2021/12/02 00:51:55;;;;;;;0.50;0.50;;;;;;;4.91;100.00;92959.25;5039227;28;20226;-72
2021/12/02 00:54:22;;;;;;;2.30;0.60;;;;;;;4.92;100.00;92955.34;5028851;28;20270;-73
2021/12/02 00:56:48;;;;;;;0.50;0.50;;;;;;;4.90;100.00;92966.59;5027383;28;20198;-73
2021/12/02 00:59:14;;;;;;;1.60;0.80;;;;;;;4.87;100.00;92966.78;5029884;28;20195;-72
2021/12/02 01:01:40;;;;;;;0.63;0.63;;;;;;;5.01;100.00;92943.63;5007935;28;20203;-73
2021/12/02 01:04:11;;;;;;;0.53;0.50;;;;;;;4.88;100.00;92955.53;5029883;28;20198;-73
2021/12/02 01:06:38;;;;;;;0.70;0.60;;;;;;;4.89;100.00;92961.66;5012277;28;20190;-73
2021/12/02 01:09:06;;;;;;;3.43;0.67;;;;;;;4.79;100.00;92968.38;4996046;28;20219;-73
2021/12/02 01:11:32;;;;;;;0.50;0.50;;;;;;;4.84;100.00;92971.19;5009134;28;20250;-73
2021/12/02 01:13:58;;;;;;;0.87;0.67;;;;;;;4.89;100.00;92973.22;5031624;28;20265;-73
2021/12/02 01:16:24;;;;;;;0.70;0.70;;;;;;;4.75;100.00;92968.56;5015716;28;20613;-72
2021/12/02 01:18:50;;;;;;;0.60;0.60;;;;;;;4.83;100.00;92968.94;5026512;28;20195;-72
2021/12/02 01:21:19;;;;;;;1.33;0.70;;;;;;;4.85;100.00;92972.66;5030155;28;20315;-73
2021/12/02 01:23:50;;;;;;;0.97;0.70;;;;;;;4.79;100.00;92974.53;5029715;28;20270;-73
2021/12/02 01:26:18;;;;;;;0.60;0.60;;;;;;;4.76;100.00;92959.25;5028398;28;20193;-72
2021/12/02 01:28:45;;;;;;;0.70;0.70;;;;;;;4.76;100.00;92972.03;5012257;28;20814;-72
2021/12/02 01:31:13;;;;;;;0.60;0.60;;;;;;;4.71;100.00;92967.28;5029168;28;20716;-73
2021/12/02 01:33:39;;;;;;;0.60;0.60;;;;;;;4.65;100.00;92953.66;5029060;28;20681;-73
2021/12/02 01:36:06;;;;;;;1.03;0.80;;;;;;;4.61;100.00;92955.81;5033109;28;20573;-73
2021/12/02 01:38:33;;;;;;;1.57;0.80;;;;;;;4.72;100.00;92955.25;5038297;28;20210;-73
2021/12/02 01:41:00;;;;;;;1.10;0.77;;;;;;;4.68;100.00;92947.31;5026029;28;20338;-72
2021/12/02 01:43:50;;;;;;;0.70;0.70;;;;;;;4.71;100.00;92964.56;5028410;28;20562;-72
2021/12/02 01:46:23;;;;;;;0.80;0.80;;;;;;;4.63;100.00;92953.38;5028792;28;20187;-72
2021/12/02 01:48:59;;;;;;;0.87;0.70;;;;;;;4.57;100.00;92957.19;5028181;28;20578;-72
2021/12/02 01:51:27;;;;;;;1.00;0.77;;;;;;;4.59;100.00;92949.38;5038710;28;20292;-71
2021/12/02 01:54:05;;;;;;;1.20;0.60;;;;;;;4.61;100.00;92946.97;5024450;28;20282;-72
2021/12/02 01:56:35;;;;;;;0.70;0.70;;;;;;;4.63;100.00;92949.94;5026858;28;20186;-73
2021/12/02 01:59:17;;;;;;;1.10;0.63;;;;;;;4.66;100.00;92960.56;5030184;28;20183;-71
2021/12/02 02:01:45;;;;;;;0.67;0.63;;;;;;;4.77;100.00;92960.75;5028071;28;20261;-72
2021/12/02 02:04:11;;;;;;;1.63;0.70;;;;;;;4.65;100.00;92955.59;5025845;28;20198;-72
2021/12/02 02:06:40;;;;;;;0.90;0.80;;;;;;;4.67;100.00;92959.34;5013016;28;20187;-73
2021/12/02 02:09:08;;;;;;;0.90;0.67;;;;;;;4.69;100.00;92951.53;5050664;28;20202;-72
2021/12/02 02:11:33;;;;;;;0.90;0.60;;;;;;;4.66;100.00;92957.13;5003941;28;20219;-72
2021/12/02 02:14:00;;;;;;;0.83;0.83;;;;;;;4.59;100.00;92962.88;5027624;28;20191;-73
2021/12/02 02:16:28;;;;;;;0.70;0.70;;;;;;;4.57;100.00;92966.06;5013797;28;20223;-73
2021/12/02 02:18:54;;;;;;;1.23;0.80;;;;;;;4.52;100.00;92957.84;5032280;28;20195;-72
2021/12/02 02:21:23;;;;;;;1.60;0.60;;;;;;;4.58;100.00;92962.13;5003256;28;20445;-71
2021/12/02 02:23:52;;;;;;;0.90;0.83;;;;;;;4.54;100.00;92952.72;5030850;28;20187;-73
2021/12/02 02:26:24;;;;;;;0.93;0.80;;;;;;;4.65;100.00;92953.66;5012056;28;20274;-72
2021/12/02 02:28:50;;;;;;;2.80;0.80;;;;;;;4.56;100.00;92959.16;5031577;28;20219;-72
2021/12/02 02:31:16;;;;;;;1.23;0.60;;;;;;;4.65;100.00;92950.19;4996005;28;20214;-72
2021/12/02 02:33:49;;;;;;;1.07;0.60;;;;;;;4.56;100.00;92950.31;5010647;28;20326;-73
2021/12/02 02:36:17;;;;;;;2.00;0.60;;;;;;;4.61;100.00;92950.41;5005337;28;20191;-72
2021/12/02 02:38:45;;;;;;;1.37;0.63;;;;;;;4.65;100.00;92932.03;5031070;28;20194;-73
2021/12/02 02:41:12;;;;;;;1.13;0.70;;;;;;;4.73;100.00;92954.03;5009533;28;20223;-72
2021/12/02 02:43:38;;;;;;;0.67;0.67;;;;;;;4.73;100.00;92951.34;5029896;28;20194;-73
2021/12/02 02:46:04;;;;;;;1.73;0.80;;;;;;;4.71;100.00;92946.41;5031815;28;20298;-73
2021/12/02 02:48:30;;;;;;;1.03;0.80;;;;;;;4.68;100.00;92943.88;5008162;28;20286;-72
2021/12/02 02:50:56;;;;;;;0.60;0.60;;;;;;;4.71;100.00;92954.50;5036253;28;20711;-72
2021/12/02 02:53:24;;;;;;;0.60;0.60;;;;;;;4.72;100.00;92952.53;5014573;28;20195;-72
2021/12/02 03:03:52;;;;;;;0.50;0.50;;;;;;;4.61;100.00;92950.41;5033272;28;20233;-73
2021/12/02 03:09:04;;;;;;;1.13;0.83;;;;;;;4.37;100.00;92968.66;5031622;28;20219;-72
2021/12/02 03:11:39;;;;;;;1.57;0.80;;;;;;;4.24;100.00;92973.56;5035809;28;20684;-72
2021/12/02 03:14:11;;;;;;;1.13;0.80;;;;;;;4.09;100.00;92982.88;5009192;28;20179;-72
2021/12/02 03:16:45;;;;;;;0.80;0.70;;;;;;;3.93;100.00;92975.16;5020036;28;20675;-72
2021/12/02 03:19:12;;;;;;;0.77;0.67;;;;;;;3.83;100.00;92979.91;5017967;28;20228;-73
2021/12/02 03:21:37;;;;;;;0.80;0.70;;;;;;;3.83;100.00;92981.84;5014317;28;20546;-72
2021/12/02 03:24:03;;;;;;;1.70;0.80;;;;;;;3.72;100.00;92977.72;5008619;28;20210;-72
2021/12/02 03:26:30;;;;;;;0.80;0.80;;;;;;;3.75;100.00;92972.59;5023021;28;20191;-73
2021/12/02 03:28:56;;;;;;;2.27;1.47;;;;;;;3.75;100.00;92986.81;5007391;28;20707;-72
2021/12/02 03:31:22;;;;;;;2.37;0.93;;;;;;;3.72;100.00;92981.63;5031451;28;20227;-72
2021/12/02 03:33:49;;;;;;;1.00;0.90;;;;;;;3.75;100.00;92978.72;5011973;28;20594;-72
2021/12/02 03:36:16;;;;;;;1.30;1.00;;;;;;;3.71;100.00;92983.56;5031313;28;20195;-72
2021/12/02 03:38:45;;;;;;;2.03;1.10;;;;;;;3.80;100.00;92997.03;5033233;28;20651;-72
2021/12/02 03:41:11;;;;;;;1.00;0.90;;;;;;;3.83;100.00;92990.69;5015469;28;20641;-73
2021/12/02 03:43:43;;;;;;;1.13;1.07;;;;;;;3.89;100.00;92993.47;5031991;28;20557;-72
2021/12/02 03:46:12;;;;;;;1.30;1.10;;;;;;;3.83;100.00;92992.63;5028288;28;20567;-73
2021/12/02 03:48:38;;;;;;;1.80;1.20;;;;;;;4.03;100.00;92990.84;5025467;28;20278;-72
2021/12/02 03:51:08;;;;;;;1.90;1.40;;;;;;;4.01;100.00;92982.47;5031420;28;20357;-73
2021/12/02 03:53:34;;;;;;;1.63;1.00;;;;;;;4.02;100.00;92975.84;5029109;28;20214;-73
2021/12/02 03:56:01;;;;;;;1.20;1.10;;;;;;;4.00;100.00;92972.88;5025133;28;20254;-73
2021/12/02 03:58:27;;;;;;;1.10;0.90;;;;;;;3.97;100.00;92981.88;5030697;28;20196;-72
2021/12/02 04:00:53;;;;;;;1.67;0.87;;;;;;;3.98;100.00;92977.97;5028845;28;20214;-72
2021/12/02 04:03:18;;;;;;;2.37;1.23;;;;;;;3.94;100.00;92974.69;5012054;28;20517;-72
2021/12/02 04:05:44;;;;;;;2.20;0.90;;;;;;;3.98;100.00;92991.47;5032016;28;20205;-73
2021/12/02 04:08:11;;;;;;;0.93;0.90;;;;;;;3.90;100.00;92978.78;5015832;28;20190;-73
2021/12/02 04:10:41;;;;;;;1.23;0.90;;;;;;;3.83;100.00;92981.84;5012509;28;20222;-73
2021/12/02 04:15:49;;;;;;;1.00;0.90;;;;;;;3.91;100.00;92977.56;5015779;28;20203;-73
2021/12/02 04:18:15;;;;;;;1.73;0.80;;;;;;;3.85;100.00;92974.78;5027375;28;20194;-73
2021/12/02 04:20:40;;;;;;;1.00;0.70;;;;;;;3.90;100.00;92968.75;5006101;28;20237;-73
2021/12/02 04:23:06;;;;;;;0.70;0.70;;;;;;;3.93;100.00;92957.03;5032193;28;20191;-72
2021/12/02 04:25:32;;;;;;;0.77;0.50;;;;;;;3.99;100.00;92957.13;5027431;28;20229;-73
2021/12/02 04:27:58;;;;;;;2.67;0.77;;;;;;;3.93;100.00;92970.53;5030095;28;20304;-72
2021/12/02 04:30:26;;;;;;;0.80;0.73;;;;;;;3.92;100.00;92969.00;5020186;28;20222;-73
2021/12/02 04:32:53;;;;;;;0.97;0.67;;;;;;;3.98;100.00;92969.88;5015343;28;20378;-72
2021/12/02 04:35:19;;;;;;;0.67;0.67;;;;;;;3.99;100.00;92968.66;5009966;28;20203;-73
2021/12/02 04:37:45;;;;;;;2.80;0.80;;;;;;;4.01;100.00;92963.56;5035352;28;20195;-73
2021/12/02 04:40:16;;;;;;;1.10;0.80;;;;;;;3.86;100.00;92970.88;5031972;28;20195;-73
2021/12/02 04:42:42;;;;;;;0.63;0.63;;;;;;;3.96;100.00;92974.25;5031711;28;20214;-72
2021/12/02 04:45:09;;;;;;;0.90;0.80;;;;;;;3.97;100.00;92975.75;5034427;28;20191;-72
2021/12/02 04:47:35;;;;;;;1.03;0.60;;;;;;;3.95;100.00;92980.84;5012999;28;20195;-73
2021/12/02 04:50:01;;;;;;;0.97;0.80;;;;;;;3.93;100.00;92967.06;5015302;28;20214;-74
2021/12/02 04:52:26;;;;;;;0.90;0.60;;;;;;;3.98;100.00;92982.63;5013434;28;20230;-72
2021/12/02 04:54:52;;;;;;;0.53;0.53;;;;;;;3.92;100.00;92977.13;5031091;28;20190;-73
2021/12/02 04:57:18;;;;;;;2.63;0.97;;;;;;;4.04;100.00;92978.81;4999581;28;20192;-72
2021/12/02 04:59:43;;;;;;;0.70;0.70;;;;;;;4.01;100.00;92987.09;5020003;28;20299;-72
2021/12/02 05:02:09;;;;;;;2.23;0.80;;;;;;;3.95;100.00;92970.06;5023548;28;20215;-73
2021/12/02 05:04:34;;;;;;;0.80;0.80;;;;;;;4.09;100.00;92993.66;5025639;28;20313;-72
2021/12/02 05:07:00;;;;;;;1.17;0.80;;;;;;;4.02;100.00;92999.41;5007408;28;20283;-73
2021/12/02 05:09:26;;;;;;;0.60;0.60;;;;;;;4.01;100.00;92993.25;5019853;28;20232;-73
2021/12/02 05:11:51;;;;;;;0.50;0.50;;;;;;;3.91;100.00;93002.63;5011122;28;20230;-72
2021/12/02 05:14:17;;;;;;;0.60;0.60;;;;;;;3.98;100.00;92994.19;5028327;28;20198;-72
2021/12/02 05:16:43;;;;;;;1.43;0.80;;;;;;;3.98;100.00;92988.78;5029705;28;20253;-73
2021/12/02 05:19:09;;;;;;;1.87;0.70;;;;;;;4.00;100.00;93001.81;5030424;28;20221;-73
2021/12/02 05:21:34;;;;;;;1.13;0.60;;;;;;;3.98;100.00;93005.00;5025726;28;20242;-72
2021/12/02 05:24:00;;;;;;;2.23;0.73;;;;;;;4.06;100.00;93006.13;5021973;28;20191;-72
2021/12/02 05:26:26;;;;;;;0.77;0.57;;;;;;;4.11;100.00;93013.59;5005993;28;20195;-72
2021/12/02 05:28:54;;;;;;;0.90;0.73;;;;;;;4.00;100.00;93004.53;5026641;28;20219;-72
2021/12/02 05:31:21;;;;;;;1.43;0.70;;;;;;;4.04;100.00;93000.44;5030109;28;20794;-72
2021/12/02 05:33:47;;;;;;;1.13;0.50;;;;;;;4.01;100.00;93006.75;5012559;28;20669;-72
2021/12/02 05:36:13;;;;;;;3.60;0.77;;;;;;;4.01;100.00;93006.75;5019626;28;20990;-72
2021/12/02 05:38:40;;;;;;;0.50;0.50;;;;;;;4.02;100.00;93016.34;5022991;28;20231;-72
2021/12/02 05:41:05;;;;;;;1.13;0.70;;;;;;;4.06;100.00;93018.88;5005901;28;20624;-72
2021/12/02 05:43:31;;;;;;;1.13;0.83;;;;;;;4.05;100.00;93017.38;5012567;28;20204;-73
2021/12/02 05:45:57;;;;;;;2.43;0.60;;;;;;;4.02;100.00;93002.84;5033449;28;20281;-72
2021/12/02 05:48:22;;;;;;;0.57;0.57;;;;;;;3.99;100.00;93005.75;5032709;28;20199;-72
2021/12/02 05:50:49;;;;;;;0.53;0.53;;;;;;;3.95;100.00;93011.31;5031172;28;20695;-73
2021/12/02 05:53:15;;;;;;;0.43;0.43;;;;;;;4.05;100.00;93012.00;5030830;28;20260;-72
2021/12/02 05:55:41;;;;;;;0.40;0.40;;;;;;;3.94;100.00;93000.97;5015916;28;20247;-72
2021/12/02 05:58:13;;;;;;;0.43;0.43;;;;;;;3.93;100.00;93002.94;4994273;28;20208;-72
2021/12/02 06:00:40;;;;;;;0.40;0.40;;;;;;;4.01;100.00;93014.09;5019371;28;20289;-72
2021/12/02 06:03:06;;;;;;;2.40;0.67;;;;;;;4.01;100.00;93009.47;5027178;28;20196;-72
2021/12/02 06:05:32;;;;;;;0.80;0.60;;;;;;;4.11;100.00;93010.13;5031944;28;20187;-73
2021/12/02 06:08:00;;;;;;;1.70;0.53;;;;;;;3.95;100.00;93003.22;5031563;28;20282;-73
2021/12/02 06:10:26;;;;;;;0.60;0.60;;;;;;;3.96;100.00;93006.63;5028205;28;20211;-72
2021/12/02 06:12:52;;;;;;;1.13;0.40;;;;;;;3.98;100.00;93002.28;5018067;28;20305;-72
2021/12/02 06:15:18;;;;;;;1.37;0.50;;;;;;;4.07;100.00;93004.19;5014998;28;20196;-73
2021/12/02 06:17:46;;;;;;;0.73;0.40;;;;;;;3.95;100.00;93013.25;5016607;28;20211;-73
2021/12/02 06:20:13;;;;;;;0.80;0.50;;;;;;;3.93;100.00;93008.31;5018324;28;20275;-72
2021/12/02 06:22:39;;;;;;;1.23;0.70;;;;;;;3.94;100.00;93011.78;5010862;28;20215;-72
2021/12/02 06:27:46;;;;;;;1.00;0.57;;;;;;;3.93;100.00;93002.94;5011855;28;20253;-72
2021/12/02 06:30:15;;;;;;;0.50;0.50;;;;;;;3.97;100.00;93016.25;5030463;28;20219;-72
2021/12/02 06:32:41;;;;;;;0.80;0.37;;;;;;;3.81;100.00;93028.19;5037013;28;20245;-72
2021/12/02 06:35:08;;;;;;;0.40;0.40;;;;;;;3.94;100.00;93034.09;5017532;28;20273;-72
2021/12/02 06:37:33;;;;;;;0.50;0.40;;;;;;;3.85;100.00;93022.63;5029709;28;20195;-72
2021/12/02 06:39:59;;;;;;;2.97;0.50;;;;;;;3.93;100.00;93037.28;5035454;28;20277;-72
2021/12/02 06:42:25;;;;;;;3.43;0.60;;;;;;;3.95;100.00;93043.72;5039168;28;20220;-72
2021/12/02 06:44:50;;;;;;;1.80;0.70;;;;;;;3.96;100.00;93033.66;5017366;28;20191;-72
2021/12/02 06:47:16;;;;;;;1.60;0.73;;;;;;;3.94;100.00;93042.22;5035072;28;20257;-71
2021/12/02 06:49:42;;;;;;;1.90;0.80;;;;;;;3.92;100.00;93052.00;5034998;28;20214;-72
2021/12/02 06:52:13;;;;;;;1.07;0.50;;;;;;;3.83;100.00;93043.94;5034871;28;20211;-72
2021/12/02 06:54:39;;;;;;;0.97;0.70;;;;;;;3.85;100.00;93046.94;5008149;28;20231;-72
2021/12/02 06:57:06;;;;;;;2.73;0.63;;;;;;;3.86;100.00;93043.75;5015359;28;20219;-72
2021/12/02 06:59:32;;;;;;;1.80;0.50;;;;;;;3.83;100.00;93049.34;5015155;28;20206;-72
2021/12/02 07:01:58;;;;;;;1.80;0.50;;;;;;;3.89;100.00;93052.88;5012646;28;20210;-71
2021/12/02 07:04:24;;;;;;;1.63;0.73;;;;;;;3.97;100.00;93045.94;5013760;28;20223;-72
2021/12/02 07:06:50;;;;;;;2.20;0.70;;;;;;;3.93;100.00;93048.81;5028195;28;20226;-72
2021/12/02 07:09:16;;;;;;;2.10;0.70;;;;;;;3.98;100.00;93050.13;5030200;28;20219;-72
2021/12/02 07:11:42;;;;;;;1.43;0.70;;;;;;;3.98;100.00;93032.00;5015972;28;20219;-72
2021/12/02 07:14:19;;;;;;;1.67;0.60;;;;;;;4.01;100.00;93044.56;5035996;28;20245;-71
2021/12/02 07:16:45;;;;;;;2.50;0.93;;;;;;;3.99;100.00;93036.16;5015189;28;20198;-72
2021/12/02 07:19:11;;;;;;;1.30;0.83;;;;;;;4.01;100.00;93051.91;5020605;28;20521;-72
2021/12/02 07:21:39;;;;;;;3.00;1.00;;;;;;;4.04;100.00;93042.91;5005362;28;20211;-72
2021/12/02 07:24:07;;;;;;;2.97;0.80;;;;;;;3.94;100.00;93034.09;5037532;28;20196;-72
2021/12/02 07:26:35;;;;;;;0.93;0.60;;;;;;;4.18;100.00;93050.31;5026346;28;20248;-73
2021/12/02 07:29:01;;;;;;;3.40;1.70;;;;;;;4.00;100.00;93053.88;5048305;28;20215;-73
2021/12/02 07:31:30;;;;;;;2.23;1.10;;;;;;;3.92;100.00;93044.63;5016630;28;20302;-72
2021/12/02 07:33:57;;;;;;;3.30;0.80;;;;;;;3.96;100.00;93045.19;5020431;28;20223;-71
2021/12/02 07:36:23;;;;;;;2.90;0.97;;;;;;;3.85;100.00;93055.03;5023916;28;20203;-72
2021/12/02 07:38:49;;;;;;;2.40;1.37;;;;;;;3.88;100.00;93051.41;5019126;28;20202;-72
2021/12/02 07:41:15;;;;;;;2.53;1.10;;;;;;;3.81;100.00;93060.59;5013763;28;20712;-71
2021/12/02 07:43:41;;;;;;;3.90;1.20;;;;;;;3.96;100.00;93057.94;5020800;28;20195;-72
2021/12/02 07:46:07;;;;;;;1.70;1.10;;;;;;;4.06;100.00;93062.09;5026207;28;20203;-72
2021/12/02 07:48:35;;;;;;;1.60;1.37;;;;;;;3.95;100.00;93056.47;5022474;28;20199;-72
2021/12/02 07:51:07;;;;;;;2.33;1.07;;;;;;;3.99;100.00;93059.75;5023796;28;20249;-72
2021/12/02 07:53:34;;;;;;;1.33;0.70;;;;;;;3.96;100.00;93072.19;5030705;28;20195;-72
2021/12/02 07:56:03;;;;;;;3.27;2.67;;;;;;;3.96;100.00;93049.84;4994448;28;20183;-71
2021/12/02 07:58:30;;;;;;;3.53;2.33;;;;;;;3.94;100.00;93034.09;5012280;28;20200;-72
2021/12/02 08:01:00;;;;;;;2.00;0.90;;;;;;;3.92;100.00;93054.69;5014080;28;20250;-72
2021/12/02 08:03:27;;;;;;;2.37;1.23;;;;;;;3.96;100.00;93049.84;5002425;28;20275;-72
2021/12/02 08:05:53;;;;;;;1.83;1.10;;;;;;;4.08;100.00;93067.78;5033731;28;20226;-72
2021/12/02 08:08:19;;;;;;;1.20;0.87;;;;;;;3.97;100.00;93048.66;5033390;28;20211;-72
2021/12/02 08:10:45;;;;;;;1.27;0.60;;;;;;;3.89;100.00;93042.09;5031995;28;20218;-72
2021/12/02 08:13:14;;;;;;;2.40;0.87;;;;;;;3.85;100.00;93053.09;5029006;28;20191;-72
2021/12/02 08:15:41;;;;;;;1.20;0.70;;;;;;;3.67;100.00;93053.16;5015945;28;20206;-72
2021/12/02 08:18:07;;;;;;;1.67;1.00;;;;;;;3.65;100.00;93053.63;5032913;28;20221;-72
2021/12/02 08:20:33;;;;;;;1.53;0.90;;;;;;;3.76;100.00;93050.44;4996997;28;20246;-72
2021/12/02 08:22:59;;;;;;;2.20;1.10;;;;;;;3.67;100.00;93042.38;5015422;28;20265;-72
2021/12/02 08:25:27;;;;;;;2.07;0.93;;;;;;;3.62;100.00;93051.09;5029284;28;20191;-72
2021/12/02 08:27:55;;;;;;;1.17;0.70;;;;;;;3.86;100.00;93059.97;5032658;28;20278;-71
2021/12/02 08:30:24;;;;;;;2.40;1.10;;;;;;;3.79;100.00;93063.00;5041286;28;20285;-72
2021/12/02 08:32:50;;;;;;;1.27;0.83;;;;;;;3.79;100.00;93049.50;5014705;28;20224;-72
2021/12/02 08:35:17;;;;;;;1.67;0.67;;;;;;;4.00;100.00;93051.19;5033150;28;20721;-71
2021/12/02 08:37:45;;;;;;;1.23;0.60;;;;;;;3.99;100.00;93041.56;5040236;28;20199;-71
2021/12/02 08:40:17;;;;;;;1.77;0.80;;;;;;;3.93;100.00;93038.03;5032367;28;20248;-72
2021/12/02 08:42:44;;;;;;;1.77;0.70;;;;;;;3.82;100.00;93043.19;5021582;28;20216;-72
2021/12/02 08:45:12;;;;;;;0.60;0.57;;;;;;;3.99;100.00;93038.88;5024611;28;20203;-72
2021/12/02 08:47:43;;;;;;;1.07;0.80;;;;;;;4.18;100.00;93042.94;5031305;28;20187;-71
2021/12/02 08:50:11;;;;;;;0.70;0.70;;;;;;;4.36;100.00;93039.38;5000559;28;20214;-72
2021/12/02 08:52:43;;;;;;;1.80;0.97;;;;;;;4.61;100.00;93047.72;5027073;28;20268;-72
2021/12/02 08:55:09;;;;;;;1.40;0.70;;;;;;;4.61;100.00;93046.97;5007624;28;20203;-71
2021/12/02 08:57:36;;;;;;;2.37;0.70;;;;;;;4.64;99.62;93043.34;5032713;28;20195;-72
2021/12/02 09:00:05;;;;;;;1.50;0.63;;;;;;;4.43;98.30;93039.03;5011121;28;20240;-72
2021/12/02 09:02:30;;;;;;;1.83;0.70;;;;;;;4.50;99.05;93055.63;5031318;28;20246;-72
2021/12/02 09:04:57;;;;;;;1.43;0.60;;;;;;;4.31;100.00;93037.31;5032271;28;20330;-72
2021/12/02 09:07:23;;;;;;;2.37;0.60;;;;;;;4.26;98.68;93027.88;5039236;28;20198;-72
2021/12/02 09:09:49;;;;;;;1.07;0.40;;;;;;;4.27;97.79;93044.84;5033866;28;20211;-72
2021/12/02 09:12:14;;;;;;;2.00;0.60;;;;;;;4.36;97.65;93039.38;5033504;28;20215;-72
2021/12/02 09:14:40;;;;;;;1.60;0.53;;;;;;;4.43;97.57;93049.84;5031993;28;20195;-72
2021/12/02 09:17:06;;;;;;;1.50;0.60;;;;;;;4.63;96.11;93061.50;5027158;28;20194;-72
2021/12/02 09:19:32;;;;;;;2.37;0.70;;;;;;;4.75;94.81;93051.66;5032211;28;20206;-72
2021/12/02 09:21:57;;;;;;;0.77;0.53;;;;;;;4.54;94.13;93048.09;5031135;28;20257;-72
2021/12/02 09:24:23;;;;;;;2.60;0.50;;;;;;;4.49;92.74;93051.44;5013554;28;20195;-72
2021/12/02 09:26:50;;;;;;;1.73;0.80;;;;;;;4.47;93.16;93045.72;5019245;28;20230;-72
2021/12/02 09:29:17;;;;;;;1.73;0.60;;;;;;;4.62;93.86;93041.09;5032599;28;20677;-71
2021/12/02 09:31:44;;;;;;;3.90;0.70;;;;;;;4.79;92.65;93050.25;5037329;28;20591;-71
2021/12/02 09:34:10;;;;;;;1.67;0.77;;;;;;;4.70;91.39;93036.81;4994250;28;20202;-72
2021/12/02 09:36:36;;;;;;;1.93;0.70;;;;;;;4.77;91.80;93039.16;5012236;28;20188;-71
2021/12/02 09:39:05;;;;;;;2.47;0.70;;;;;;;4.94;91.04;93034.03;5011803;28;20192;-71
2021/12/02 09:41:30;;;;;;;3.67;1.00;;;;;;;4.98;90.58;93037.31;4962157;28;20212;-71
2021/12/02 09:43:56;;;;;;;1.13;0.60;;;;;;;5.27;89.63;93036.53;5010806;28;20198;-71
2021/12/02 09:46:22;;;;;;;2.73;0.70;;;;;;;5.32;88.84;93031.22;5030656;28;20190;-71
2021/12/02 09:48:48;;;;;;;4.57;1.07;;;;;;;5.14;88.85;93034.13;5028544;28;20187;-71
2021/12/02 09:51:22;;;;;;;2.20;0.63;;;;;;;5.10;87.98;93033.56;5030572;28;20214;-71
2021/12/02 09:54:01;;;;;;;1.63;0.50;;;;;;;5.10;88.18;93028.16;5008418;28;20194;-70
2021/12/02 09:56:32;;;;;;;4.13;0.60;;;;;;;5.36;88.12;93020.22;5011521;28;20179;-71
2021/12/02 09:59:11;;;;;;;4.83;1.13;;;;;;;5.35;88.41;93016.00;5032872;28;20195;-71
2021/12/02 10:01:44;;;;;;;3.03;0.70;;;;;;;5.41;88.00;93020.28;5018735;28;20202;-71
2021/12/02 10:04:11;;;;;;;1.73;0.63;;;;;;;5.35;87.76;93016.75;5030920;28;20234;-72
2021/12/02 10:06:39;;;;;;;3.07;1.03;;;;;;;5.19;87.52;93014.53;5011263;28;20719;-72
2021/12/02 10:09:15;;;;;;;1.57;0.70;;;;;;;5.00;88.97;93005.13;5036768;28;20225;-71
2021/12/02 10:11:50;;;;;;;0.97;0.50;;;;;;;5.09;90.19;93001.56;5000713;28;20233;-71
2021/12/02 10:14:39;;;;;;;2.80;0.60;;;;;;;5.12;89.42;93001.38;5013494;28;20187;-71
2021/12/02 10:17:20;;;;;;;4.97;1.37;;;;;;;5.00;88.02;93002.44;5036352;28;20198;-72
2021/12/02 10:22:42;;;;;;;3.03;0.93;;;;;;;5.08;88.22;93010.88;5035035;28;20203;-71
2021/12/02 10:25:08;;;;;;;1.00;0.70;;;;;;;5.10;87.29;93011.94;5031557;28;20245;-71
2021/12/02 10:27:33;;;;;;;4.03;0.80;;;;;;;5.19;88.26;93009.13;5016960;28;20322;-72
2021/12/02 10:29:59;;;;;;;2.50;0.50;;;;;;;5.28;87.40;93005.56;5019265;28;20222;-71
2021/12/02 10:32:32;;;;;;;3.03;0.83;;;;;;;5.10;87.25;93011.94;5033973;28;20311;-71
2021/12/02 10:35:06;;;;;;;1.43;0.57;;;;;;;5.08;88.18;92995.41;5036168;28;20191;-72
2021/12/02 10:37:39;;;;;;;3.00;0.70;;;;;;;5.28;88.27;93000.88;5010629;28;20277;-71
2021/12/02 10:40:11;;;;;;;2.63;0.80;;;;;;;5.43;88.65;92996.19;5019127;28;20575;-71
2021/12/02 10:42:43;;;;;;;3.23;1.00;;;;;;;5.39;87.83;92986.78;5017935;28;20211;-72
2021/12/02 10:45:27;;;;;;;2.30;0.60;;;;;;;5.45;87.50;92993.75;5019267;28;20230;-71
2021/12/02 10:47:54;;;;;;;0.73;0.63;;;;;;;5.59;87.69;92989.53;5035419;28;20194;-72
2021/12/02 10:50:22;;;;;;;3.87;1.00;;;;;;;5.47;87.13;92983.22;5034870;28;20222;-71
2021/12/02 10:52:48;;;;;;;1.80;0.90;;;;;;;5.58;88.74;92971.81;5036969;28;20317;-72
2021/12/02 10:55:19;;;;;;;6.00;1.10;;;;;;;5.63;88.25;92971.88;5030206;28;20187;-72
2021/12/02 10:57:54;;;;;;;0.63;0.60;;;;;;;5.53;88.22;92970.50;5033867;28;20285;-72
2021/12/02 11:00:26;;;;;;;3.47;0.80;;;;;;;5.63;87.27;92968.44;5013569;28;20196;-72
2021/12/02 11:02:54;;;;;;;2.20;0.80;;;;;;;5.49;87.10;92966.50;5027475;28;20242;-72
2021/12/02 11:05:29;;;;;;;1.87;0.67;;;;;;;5.46;87.91;92970.91;5010437;28;20253;-73
2021/12/02 11:08:10;;;;;;;1.77;0.40;;;;;;;5.42;87.21;92967.66;5028625;28;20194;-72
2021/12/02 11:10:41;;;;;;;1.47;0.60;;;;;;;5.05;89.42;92982.06;5011789;28;20588;-72
2021/12/02 11:13:09;;;;;;;1.43;0.70;;;;;;;5.01;90.87;92968.75;5006737;28;20198;-72
2021/12/02 11:15:37;;;;;;;2.47;0.50;;;;;;;4.83;91.57;92958.13;5031563;28;20197;-71
2021/12/02 11:18:06;;;;;;;2.80;1.07;;;;;;;4.89;91.30;92975.94;5032975;28;20260;-72
2021/12/02 11:20:38;;;;;;;1.67;0.87;;;;;;;5.07;91.40;92969.59;5018437;28;20207;-72
2021/12/02 11:23:41;;;;;;;1.80;0.57;;;;;;;5.17;91.65;92965.56;5009554;28;20206;-73
2021/12/02 11:26:11;;;;;;;0.63;0.53;;;;;;;5.38;89.99;92964.38;4992529;28;20278;-72
2021/12/02 11:28:40;;;;;;;1.97;0.60;;;;;;;5.45;88.82;92952.41;5033805;28;20188;-71
2021/12/02 11:31:13;;;;;;;2.00;0.63;;;;;;;5.61;88.41;92951.91;5027735;28;20355;-72
2021/12/02 11:33:40;;;;;;;0.67;0.40;;;;;;;5.98;85.76;92939.34;5020254;28;20715;-72
2021/12/02 11:36:16;;;;;;;0.80;0.50;;;;;;;6.14;86.28;92944.22;5027316;28;20665;-73
2021/12/02 11:38:42;;;;;;;1.97;1.10;;;;;;;5.78;85.36;92944.75;5007924;28;20811;-72
2021/12/02 11:41:08;;;;;;;1.57;0.60;;;;;;;5.52;86.54;92941.19;5029271;28;20242;-72
2021/12/02 11:43:39;;;;;;;2.70;0.77;;;;;;;5.54;87.65;92942.22;5023836;28;20227;-72
2021/12/02 11:46:08;;;;;;;2.10;0.97;;;;;;;5.91;86.19;92937.03;5016240;28;20706;-72
2021/12/02 11:48:38;;;;;;;1.63;0.80;;;;;;;6.11;86.71;92940.47;5030349;28;21508;-72
2021/12/02 11:51:07;;;;;;;1.80;0.87;;;;;;;5.87;86.08;92926.41;5033200;28;20215;-72
2021/12/02 11:53:33;;;;;;;4.30;0.67;;;;;;;5.85;86.22;92918.00;5024635;28;20602;-72
2021/12/02 11:56:07;;;;;;;2.50;0.60;;;;;;;5.69;86.73;92936.72;4999324;28;20221;-72
2021/12/02 11:58:34;;;;;;;2.13;0.60;;;;;;;5.64;85.70;92915.75;5040784;28;20190;-72
2021/12/02 12:01:00;;;;;;;1.63;0.70;;;;;;;5.69;86.81;92912.38;5017232;28;20207;-72
2021/12/02 12:03:41;;;;;;;4.67;0.80;;;;;;;5.70;87.42;92930.13;5030560;28;20219;-72